sensor_id;sensor_type;location;lat;lon;timestamp;temperature;humidity
50560;DHT22;36510;52.610;13.468;2022-11-20T00:03:09;2.40;63.90
50560;DHT22;36510;52.610;13.468;2022-11-20T00:07:59;2.50;63.40
50560;DHT22;36510;52.610;13.468;2022-11-20T00:12:50;2.50;62.90
50560;DHT22;36510;52.610;13.468;2022-11-20T00:17:40;2.40;63.20
50560;DHT22;36510;52.610;13.468;2022-11-20T00:22:31;2.30;63.20
50560;DHT22;36510;52.610;13.468;2022-11-20T00:27:21;2.40;64.10
50560;DHT22;36510;52.610;13.468;2022-11-20T00:32:11;2.10;63.90
50560;DHT22;36510;52.610;13.468;2022-11-20T00:37:02;2.20;64.30
50560;DHT22;36510;52.610;13.468;2022-11-20T00:41:52;2.40;64.20
50560;DHT22;36510;52.610;13.468;2022-11-20T00:46:43;2.50;63.30
50560;DHT22;36510;52.610;13.468;2022-11-20T00:51:33;2.40;62.30
50560;DHT22;36510;52.610;13.468;2022-11-20T00:56:24;2.50;62.30
50560;DHT22;36510;52.610;13.468;2022-11-20T01:01:23;2.30;62.50
50560;DHT22;36510;52.610;13.468;2022-11-20T01:06:19;2.20;63.80
50560;DHT22;36510;52.610;13.468;2022-11-20T01:11:13;2.10;63.80
50560;DHT22;36510;52.610;13.468;2022-11-20T01:16:09;2.20;63.20
50560;DHT22;36510;52.610;13.468;2022-11-20T01:21:02;2.30;63.50
50560;DHT22;36510;52.610;13.468;2022-11-20T01:25:53;2.30;63.10
50560;DHT22;36510;52.610;13.468;2022-11-20T01:30:43;2.40;62.50
50560;DHT22;36510;52.610;13.468;2022-11-20T01:35:34;2.40;61.40
50560;DHT22;36510;52.610;13.468;2022-11-20T01:40:24;2.20;61.50
50560;DHT22;36510;52.610;13.468;2022-11-20T01:46:04;2.30;62.10
50560;DHT22;36510;52.610;13.468;2022-11-20T01:50:55;2.30;62.50
50560;DHT22;36510;52.610;13.468;2022-11-20T01:55:49;2.30;62.10
50560;DHT22;36510;52.610;13.468;2022-11-20T02:00:40;2.20;61.50
50560;DHT22;36510;52.610;13.468;2022-11-20T02:05:47;2.30;61.20
50560;DHT22;36510;52.610;13.468;2022-11-20T02:10:39;2.30;60.80
50560;DHT22;36510;52.610;13.468;2022-11-20T02:15:31;2.30;60.80
50560;DHT22;36510;52.610;13.468;2022-11-20T02:20:22;2.30;61.20
50560;DHT22;36510;52.610;13.468;2022-11-20T02:25:13;2.30;60.80
50560;DHT22;36510;52.610;13.468;2022-11-20T02:30:05;2.20;60.50
50560;DHT22;36510;52.610;13.468;2022-11-20T02:40:10;2.50;60.40
50560;DHT22;36510;52.610;13.468;2022-11-20T02:45:00;2.40;59.60
50560;DHT22;36510;52.610;13.468;2022-11-20T02:49:51;2.40;59.80
50560;DHT22;36510;52.610;13.468;2022-11-20T02:54:41;2.40;60.10
50560;DHT22;36510;52.610;13.468;2022-11-20T02:59:32;2.30;59.90
50560;DHT22;36510;52.610;13.468;2022-11-20T03:04:22;2.30;60.70
50560;DHT22;36510;52.610;13.468;2022-11-20T03:09:13;2.30;60.80
50560;DHT22;36510;52.610;13.468;2022-11-20T03:14:04;2.30;60.00
50560;DHT22;36510;52.610;13.468;2022-11-20T03:18:55;2.10;60.30
50560;DHT22;36510;52.610;13.468;2022-11-20T03:23:45;2.10;60.40
50560;DHT22;36510;52.610;13.468;2022-11-20T03:28:36;2.10;60.50
50560;DHT22;36510;52.610;13.468;2022-11-20T03:33:28;2.10;60.30
50560;DHT22;36510;52.610;13.468;2022-11-20T03:38:18;2.30;60.70
50560;DHT22;36510;52.610;13.468;2022-11-20T03:43:09;2.30;59.00
50560;DHT22;36510;52.610;13.468;2022-11-20T03:48:00;2.20;59.60
50560;DHT22;36510;52.610;13.468;2022-11-20T03:52:50;2.10;59.90
50560;DHT22;36510;52.610;13.468;2022-11-20T03:57:40;2.00;60.00
50560;DHT22;36510;52.610;13.468;2022-11-20T04:02:31;2.00;61.10
50560;DHT22;36510;52.610;13.468;2022-11-20T04:07:21;1.90;60.60
50560;DHT22;36510;52.610;13.468;2022-11-20T04:12:12;2.20;60.70
50560;DHT22;36510;52.610;13.468;2022-11-20T04:17:03;2.00;61.30
50560;DHT22;36510;52.610;13.468;2022-11-20T04:21:54;1.90;61.20
50560;DHT22;36510;52.610;13.468;2022-11-20T04:26:44;2.10;62.40
50560;DHT22;36510;52.610;13.468;2022-11-20T04:31:35;2.00;62.40
50560;DHT22;36510;52.610;13.468;2022-11-20T04:36:26;2.00;63.00
50560;DHT22;36510;52.610;13.468;2022-11-20T04:41:20;2.00;61.30
50560;DHT22;36510;52.610;13.468;2022-11-20T04:46:11;1.90;62.30
50560;DHT22;36510;52.610;13.468;2022-11-20T04:51:04;1.90;62.60
50560;DHT22;36510;52.610;13.468;2022-11-20T04:56:02;1.90;61.90
50560;DHT22;36510;52.610;13.468;2022-11-20T05:00:53;1.90;62.20
50560;DHT22;36510;52.610;13.468;2022-11-20T05:05:43;2.00;61.60
50560;DHT22;36510;52.610;13.468;2022-11-20T05:10:34;2.00;60.90
50560;DHT22;36510;52.610;13.468;2022-11-20T05:15:24;2.20;60.30
50560;DHT22;36510;52.610;13.468;2022-11-20T05:20:15;2.20;59.20
50560;DHT22;36510;52.610;13.468;2022-11-20T05:25:06;2.30;59.00
50560;DHT22;36510;52.610;13.468;2022-11-20T05:29:56;2.30;58.10
50560;DHT22;36510;52.610;13.468;2022-11-20T05:34:47;2.50;58.10
50560;DHT22;36510;52.610;13.468;2022-11-20T05:39:37;2.50;57.70
50560;DHT22;36510;52.610;13.468;2022-11-20T05:44:27;2.50;57.10
50560;DHT22;36510;52.610;13.468;2022-11-20T05:49:18;2.40;57.20
50560;DHT22;36510;52.610;13.468;2022-11-20T05:54:08;2.30;58.50
50560;DHT22;36510;52.610;13.468;2022-11-20T05:58:59;2.20;58.80
50560;DHT22;36510;52.610;13.468;2022-11-20T06:03:50;2.10;59.00
50560;DHT22;36510;52.610;13.468;2022-11-20T06:08:41;2.30;59.10
50560;DHT22;36510;52.610;13.468;2022-11-20T06:13:31;2.50;58.50
50560;DHT22;36510;52.610;13.468;2022-11-20T06:18:22;2.50;57.10
50560;DHT22;36510;52.610;13.468;2022-11-20T06:23:12;2.40;57.60
50560;DHT22;36510;52.610;13.468;2022-11-20T06:28:03;2.20;58.60
50560;DHT22;36510;52.610;13.468;2022-11-20T06:32:53;2.20;59.10
50560;DHT22;36510;52.610;13.468;2022-11-20T06:37:44;2.20;60.60
50560;DHT22;36510;52.610;13.468;2022-11-20T06:42:34;2.10;59.80
50560;DHT22;36510;52.610;13.468;2022-11-20T06:47:25;2.00;60.80
50560;DHT22;36510;52.610;13.468;2022-11-20T06:52:15;2.20;60.30
50560;DHT22;36510;52.610;13.468;2022-11-20T06:57:06;2.10;60.00
50560;DHT22;36510;52.610;13.468;2022-11-20T07:01:56;2.20;60.10
50560;DHT22;36510;52.610;13.468;2022-11-20T07:06:48;2.10;60.40
50560;DHT22;36510;52.610;13.468;2022-11-20T07:11:38;2.10;60.70
50560;DHT22;36510;52.610;13.468;2022-11-20T07:16:29;2.40;60.60
50560;DHT22;36510;52.610;13.468;2022-11-20T07:21:19;2.40;59.40
50560;DHT22;36510;52.610;13.468;2022-11-20T07:26:10;2.60;59.30
50560;DHT22;36510;52.610;13.468;2022-11-20T07:31:01;2.60;58.50
50560;DHT22;36510;52.610;13.468;2022-11-20T07:35:51;2.50;59.10
50560;DHT22;36510;52.610;13.468;2022-11-20T07:40:42;2.30;59.70
50560;DHT22;36510;52.610;13.468;2022-11-20T07:45:32;2.30;60.30
50560;DHT22;36510;52.610;13.468;2022-11-20T07:50:23;2.40;60.20
50560;DHT22;36510;52.610;13.468;2022-11-20T07:55:14;2.50;60.80
50560;DHT22;36510;52.610;13.468;2022-11-20T08:00:06;2.40;60.60
50560;DHT22;36510;52.610;13.468;2022-11-20T08:05:00;2.40;60.20
50560;DHT22;36510;52.610;13.468;2022-11-20T08:09:50;2.40;59.40
50560;DHT22;36510;52.610;13.468;2022-11-20T08:14:41;2.40;59.60
50560;DHT22;36510;52.610;13.468;2022-11-20T08:19:31;2.70;59.50
50560;DHT22;36510;52.610;13.468;2022-11-20T08:24:22;2.60;58.50
50560;DHT22;36510;52.610;13.468;2022-11-20T08:29:12;2.40;57.80
50560;DHT22;36510;52.610;13.468;2022-11-20T08:34:03;2.30;59.10
50560;DHT22;36510;52.610;13.468;2022-11-20T08:38:54;2.60;59.50
50560;DHT22;36510;52.610;13.468;2022-11-20T08:43:45;2.50;58.10
50560;DHT22;36510;52.610;13.468;2022-11-20T08:48:36;2.60;57.70
50560;DHT22;36510;52.610;13.468;2022-11-20T08:53:27;2.50;57.00
50560;DHT22;36510;52.610;13.468;2022-11-20T08:58:17;2.50;58.20
50560;DHT22;36510;52.610;13.468;2022-11-20T09:03:08;2.40;58.30
50560;DHT22;36510;52.610;13.468;2022-11-20T09:07:59;2.40;57.80
50560;DHT22;36510;52.610;13.468;2022-11-20T09:12:49;2.20;58.90
50560;DHT22;36510;52.610;13.468;2022-11-20T09:17:41;2.10;59.20
50560;DHT22;36510;52.610;13.468;2022-11-20T09:22:32;2.10;59.20
50560;DHT22;36510;52.610;13.468;2022-11-20T09:27:23;2.10;59.30
50560;DHT22;36510;52.610;13.468;2022-11-20T09:32:13;2.20;59.30
50560;DHT22;36510;52.610;13.468;2022-11-20T09:37:04;2.30;58.90
50560;DHT22;36510;52.610;13.468;2022-11-20T09:47:21;2.20;59.50
50560;DHT22;36510;52.610;13.468;2022-11-20T09:57:43;2.50;59.90
50560;DHT22;36510;52.610;13.468;2022-11-20T10:02:42;2.50;60.60
50560;DHT22;36510;52.610;13.468;2022-11-20T10:07:52;2.50;60.30
50560;DHT22;36510;52.610;13.468;2022-11-20T10:18:05;2.50;58.40
50560;DHT22;36510;52.610;13.468;2022-11-20T10:23:19;2.40;59.20
50560;DHT22;36510;52.610;13.468;2022-11-20T10:28:48;2.30;60.40
50560;DHT22;36510;52.610;13.468;2022-11-20T10:33:45;2.30;60.00
50560;DHT22;36510;52.610;13.468;2022-11-20T10:38:59;2.30;60.10
50560;DHT22;36510;52.610;13.468;2022-11-20T10:48:54;2.40;60.10
50560;DHT22;36510;52.610;13.468;2022-11-20T10:54:12;2.40;60.20
50560;DHT22;36510;52.610;13.468;2022-11-20T10:59:28;2.40;61.40
50560;DHT22;36510;52.610;13.468;2022-11-20T11:04:51;2.80;60.00
50560;DHT22;36510;52.610;13.468;2022-11-20T11:09:53;3.00;58.40
50560;DHT22;36510;52.610;13.468;2022-11-20T11:14:49;3.00;56.30
50560;DHT22;36510;52.610;13.468;2022-11-20T11:19:40;3.20;56.20
50560;DHT22;36510;52.610;13.468;2022-11-20T11:24:30;2.90;56.00
50560;DHT22;36510;52.610;13.468;2022-11-20T11:29:21;2.80;57.20
50560;DHT22;36510;52.610;13.468;2022-11-20T11:34:13;2.90;58.70
50560;DHT22;36510;52.610;13.468;2022-11-20T11:39:06;3.00;57.30
50560;DHT22;36510;52.610;13.468;2022-11-20T11:44:19;3.10;56.10
50560;DHT22;36510;52.610;13.468;2022-11-20T11:49:28;3.30;55.50
50560;DHT22;36510;52.610;13.468;2022-11-20T11:54:34;3.30;54.50
50560;DHT22;36510;52.610;13.468;2022-11-20T12:04:57;3.00;58.30
50560;DHT22;36510;52.610;13.468;2022-11-20T12:09:52;3.00;59.70
50560;DHT22;36510;52.610;13.468;2022-11-20T12:14:46;3.00;60.20
50560;DHT22;36510;52.610;13.468;2022-11-20T12:19:56;2.90;60.30
50560;DHT22;36510;52.610;13.468;2022-11-20T12:25:08;3.00;60.80
50560;DHT22;36510;52.610;13.468;2022-11-20T12:30:19;2.60;60.10
50560;DHT22;36510;52.610;13.468;2022-11-20T12:45:37;2.90;60.20
50560;DHT22;36510;52.610;13.468;2022-11-20T12:55:53;3.40;58.70
50560;DHT22;36510;52.610;13.468;2022-11-20T13:06:24;3.50;57.20
50560;DHT22;36510;52.610;13.468;2022-11-20T13:11:19;3.50;55.90
50560;DHT22;36510;52.610;13.468;2022-11-20T13:16:17;3.50;56.40
50560;DHT22;36510;52.610;13.468;2022-11-20T13:21:18;3.40;55.50
50560;DHT22;36510;52.610;13.468;2022-11-20T13:26:22;3.50;55.60
50560;DHT22;36510;52.610;13.468;2022-11-20T13:31:32;3.50;55.50
50560;DHT22;36510;52.610;13.468;2022-11-20T13:36:25;3.60;55.60
50560;DHT22;36510;52.610;13.468;2022-11-20T13:41:29;3.60;56.20
50560;DHT22;36510;52.610;13.468;2022-11-20T13:46:21;3.60;55.10
50560;DHT22;36510;52.610;13.468;2022-11-20T13:51:39;3.80;54.30
50560;DHT22;36510;52.610;13.468;2022-11-20T14:01:41;3.50;53.10
50560;DHT22;36510;52.610;13.468;2022-11-20T14:06:45;3.40;53.60
50560;DHT22;36510;52.610;13.468;2022-11-20T14:11:46;3.50;54.10
50560;DHT22;36510;52.610;13.468;2022-11-20T14:16:37;3.70;53.10
50560;DHT22;36510;52.610;13.468;2022-11-20T14:21:29;3.30;52.40
50560;DHT22;36510;52.610;13.468;2022-11-20T14:26:19;3.50;51.80
50560;DHT22;36510;52.610;13.468;2022-11-20T14:31:21;3.40;52.40
50560;DHT22;36510;52.610;13.468;2022-11-20T14:36:17;3.40;53.20
50560;DHT22;36510;52.610;13.468;2022-11-20T14:41:17;3.30;53.10
50560;DHT22;36510;52.610;13.468;2022-11-20T14:46:09;3.10;53.20
50560;DHT22;36510;52.610;13.468;2022-11-20T14:51:00;3.10;54.50
50560;DHT22;36510;52.610;13.468;2022-11-20T14:55:56;3.10;54.30
50560;DHT22;36510;52.610;13.468;2022-11-20T15:01:19;3.10;54.30
50560;DHT22;36510;52.610;13.468;2022-11-20T15:06:25;3.10;56.10
50560;DHT22;36510;52.610;13.468;2022-11-20T15:11:19;3.10;56.10
50560;DHT22;36510;52.610;13.468;2022-11-20T15:16:18;3.10;56.10
50560;DHT22;36510;52.610;13.468;2022-11-20T15:21:14;2.90;56.80
50560;DHT22;36510;52.610;13.468;2022-11-20T15:26:06;2.60;58.60
50560;DHT22;36510;52.610;13.468;2022-11-20T15:30:58;2.50;59.20
50560;DHT22;36510;52.610;13.468;2022-11-20T15:35:48;2.70;58.60
50560;DHT22;36510;52.610;13.468;2022-11-20T15:40:39;2.70;58.00
50560;DHT22;36510;52.610;13.468;2022-11-20T15:45:42;2.70;57.50
50560;DHT22;36510;52.610;13.468;2022-11-20T15:50:37;2.80;57.70
50560;DHT22;36510;52.610;13.468;2022-11-20T15:55:28;2.70;56.70
50560;DHT22;36510;52.610;13.468;2022-11-20T16:00:18;2.60;57.70
50560;DHT22;36510;52.610;13.468;2022-11-20T16:05:11;2.80;57.40
50560;DHT22;36510;52.610;13.468;2022-11-20T16:10:02;2.90;56.00
50560;DHT22;36510;52.610;13.468;2022-11-20T16:14:53;2.90;55.50
50560;DHT22;36510;52.610;13.468;2022-11-20T16:20:02;3.00;55.00
50560;DHT22;36510;52.610;13.468;2022-11-20T16:24:53;3.00;54.10
50560;DHT22;36510;52.610;13.468;2022-11-20T16:29:43;3.00;54.10
50560;DHT22;36510;52.610;13.468;2022-11-20T16:34:34;2.80;54.70
50560;DHT22;36510;52.610;13.468;2022-11-20T16:39:25;2.60;54.80
50560;DHT22;36510;52.610;13.468;2022-11-20T16:44:15;2.50;55.70
50560;DHT22;36510;52.610;13.468;2022-11-20T16:49:11;2.60;55.80
50560;DHT22;36510;52.610;13.468;2022-11-20T16:54:04;2.50;55.70
50560;DHT22;36510;52.610;13.468;2022-11-20T16:58:56;2.70;55.30
50560;DHT22;36510;52.610;13.468;2022-11-20T17:03:56;2.70;54.60
50560;DHT22;36510;52.610;13.468;2022-11-20T17:08:47;2.60;55.10
50560;DHT22;36510;52.610;13.468;2022-11-20T17:13:38;2.80;54.90
50560;DHT22;36510;52.610;13.468;2022-11-20T17:18:29;2.80;54.60
50560;DHT22;36510;52.610;13.468;2022-11-20T17:23:20;2.80;53.40
50560;DHT22;36510;52.610;13.468;2022-11-20T17:28:11;2.80;53.60
50560;DHT22;36510;52.610;13.468;2022-11-20T17:33:01;2.80;53.20
50560;DHT22;36510;52.610;13.468;2022-11-20T17:37:52;2.80;53.90
50560;DHT22;36510;52.610;13.468;2022-11-20T17:42:42;2.70;53.40
50560;DHT22;36510;52.610;13.468;2022-11-20T17:47:34;2.80;53.50
50560;DHT22;36510;52.610;13.468;2022-11-20T17:52:26;2.70;53.60
50560;DHT22;36510;52.610;13.468;2022-11-20T17:57:18;2.70;53.20
50560;DHT22;36510;52.610;13.468;2022-11-20T18:02:27;2.90;53.20
50560;DHT22;36510;52.610;13.468;2022-11-20T18:07:20;2.80;52.70
50560;DHT22;36510;52.610;13.468;2022-11-20T18:12:13;2.90;52.00
50560;DHT22;36510;52.610;13.468;2022-11-20T18:17:08;3.00;52.30
50560;DHT22;36510;52.610;13.468;2022-11-20T18:22:00;2.90;52.30
50560;DHT22;36510;52.610;13.468;2022-11-20T18:26:53;2.90;52.50
50560;DHT22;36510;52.610;13.468;2022-11-20T18:31:43;2.90;52.70
50560;DHT22;36510;52.610;13.468;2022-11-20T18:36:34;2.70;52.40
50560;DHT22;36510;52.610;13.468;2022-11-20T18:41:27;2.60;53.50
50560;DHT22;36510;52.610;13.468;2022-11-20T18:46:36;2.50;54.10
50560;DHT22;36510;52.610;13.468;2022-11-20T18:51:27;2.40;54.60
50560;DHT22;36510;52.610;13.468;2022-11-20T18:56:18;2.30;54.60
50560;DHT22;36510;52.610;13.468;2022-11-20T19:01:08;2.40;55.00
50560;DHT22;36510;52.610;13.468;2022-11-20T19:05:59;2.50;55.10
50560;DHT22;36510;52.610;13.468;2022-11-20T19:10:50;2.50;54.80
50560;DHT22;36510;52.610;13.468;2022-11-20T19:15:42;2.60;54.00
50560;DHT22;36510;52.610;13.468;2022-11-20T19:20:32;2.60;53.70
50560;DHT22;36510;52.610;13.468;2022-11-20T19:25:23;2.80;53.20
50560;DHT22;36510;52.610;13.468;2022-11-20T19:30:14;2.50;52.70
50560;DHT22;36510;52.610;13.468;2022-11-20T19:35:05;2.70;52.90
50560;DHT22;36510;52.610;13.468;2022-11-20T19:39:55;2.80;52.60
50560;DHT22;36510;52.610;13.468;2022-11-20T19:44:48;2.90;52.10
50560;DHT22;36510;52.610;13.468;2022-11-20T19:49:39;3.00;51.50
50560;DHT22;36510;52.610;13.468;2022-11-20T19:54:31;3.00;51.10
50560;DHT22;36510;52.610;13.468;2022-11-20T19:59:21;2.80;51.50
50560;DHT22;36510;52.610;13.468;2022-11-20T20:04:12;2.30;53.10
50560;DHT22;36510;52.610;13.468;2022-11-20T20:09:05;2.20;54.80
50560;DHT22;36510;52.610;13.468;2022-11-20T20:13:56;2.40;54.40
50560;DHT22;36510;52.610;13.468;2022-11-20T20:18:48;2.40;53.30
50560;DHT22;36510;52.610;13.468;2022-11-20T20:23:43;2.60;52.20
50560;DHT22;36510;52.610;13.468;2022-11-20T20:28:35;2.60;51.60
50560;DHT22;36510;52.610;13.468;2022-11-20T20:33:25;2.40;52.90
50560;DHT22;36510;52.610;13.468;2022-11-20T20:38:16;2.20;53.70
50560;DHT22;36510;52.610;13.468;2022-11-20T20:43:06;2.20;53.40
50560;DHT22;36510;52.610;13.468;2022-11-20T20:47:57;2.10;53.20
50560;DHT22;36510;52.610;13.468;2022-11-20T20:52:48;2.30;53.20
50560;DHT22;36510;52.610;13.468;2022-11-20T20:57:38;2.40;52.20
50560;DHT22;36510;52.610;13.468;2022-11-20T21:02:29;2.10;53.00
50560;DHT22;36510;52.610;13.468;2022-11-20T21:07:20;2.00;54.30
50560;DHT22;36510;52.610;13.468;2022-11-20T21:12:10;1.80;55.10
50560;DHT22;36510;52.610;13.468;2022-11-20T21:17:01;1.80;54.80
50560;DHT22;36510;52.610;13.468;2022-11-20T21:21:52;1.70;54.60
50560;DHT22;36510;52.610;13.468;2022-11-20T21:26:48;2.00;54.80
50560;DHT22;36510;52.610;13.468;2022-11-20T21:31:41;2.00;52.70
50560;DHT22;36510;52.610;13.468;2022-11-20T21:36:31;2.20;51.90
50560;DHT22;36510;52.610;13.468;2022-11-20T21:41:23;2.10;51.40
50560;DHT22;36510;52.610;13.468;2022-11-20T21:46:15;2.00;52.00
50560;DHT22;36510;52.610;13.468;2022-11-20T21:51:11;1.90;52.70
50560;DHT22;36510;52.610;13.468;2022-11-20T21:56:03;2.10;52.50
50560;DHT22;36510;52.610;13.468;2022-11-20T22:00:54;2.00;51.00
50560;DHT22;36510;52.610;13.468;2022-11-20T22:05:57;2.00;51.20
50560;DHT22;36510;52.610;13.468;2022-11-20T22:10:59;2.10;51.20
50560;DHT22;36510;52.610;13.468;2022-11-20T22:15:50;2.20;51.30
50560;DHT22;36510;52.610;13.468;2022-11-20T22:20:41;2.40;49.80
50560;DHT22;36510;52.610;13.468;2022-11-20T22:25:32;2.40;48.50
50560;DHT22;36510;52.610;13.468;2022-11-20T22:30:22;2.40;49.00
50560;DHT22;36510;52.610;13.468;2022-11-20T22:35:13;2.60;48.40
50560;DHT22;36510;52.610;13.468;2022-11-20T22:40:04;2.40;46.20
50560;DHT22;36510;52.610;13.468;2022-11-20T22:44:54;2.00;46.50
50560;DHT22;36510;52.610;13.468;2022-11-20T22:49:45;1.50;48.50
50560;DHT22;36510;52.610;13.468;2022-11-20T22:54:35;1.20;49.80
50560;DHT22;36510;52.610;13.468;2022-11-20T22:59:26;1.20;51.00
50560;DHT22;36510;52.610;13.468;2022-11-20T23:04:16;1.30;50.20
50560;DHT22;36510;52.610;13.468;2022-11-20T23:09:07;1.50;51.10
50560;DHT22;36510;52.610;13.468;2022-11-20T23:14:00;1.60;48.00
50560;DHT22;36510;52.610;13.468;2022-11-20T23:18:55;1.70;47.00
50560;DHT22;36510;52.610;13.468;2022-11-20T23:23:48;1.80;47.20
50560;DHT22;36510;52.610;13.468;2022-11-20T23:28:39;1.90;46.70
50560;DHT22;36510;52.610;13.468;2022-11-20T23:33:32;2.10;46.40
50560;DHT22;36510;52.610;13.468;2022-11-20T23:38:24;2.20;44.10
50560;DHT22;36510;52.610;13.468;2022-11-20T23:43:16;2.10;43.80
50560;DHT22;36510;52.610;13.468;2022-11-20T23:48:07;2.20;44.90
50560;DHT22;36510;52.610;13.468;2022-11-20T23:52:57;2.20;44.30
50560;DHT22;36510;52.610;13.468;2022-11-20T23:57:49;2.20;44.10
